sensor_id;sensor_type;location;lat;lon;timestamp;pressure;altitude;pressure_sealevel;temperature;humidity
51081;BME280;37130;55.670;37.596;2022-09-09T00:00:23;100229.06;;;7.64;63.54
51081;BME280;37130;55.670;37.596;2022-09-09T00:05:29;100225.53;;;7.65;63.09
51081;BME280;37130;55.670;37.596;2022-09-09T00:07:58;100224.63;;;7.65;63.14
51081;BME280;37130;55.670;37.596;2022-09-09T00:10:29;100226.41;;;7.66;63.02
51081;BME280;37130;55.670;37.596;2022-09-09T00:15:25;100231.75;;;7.63;63.56
51081;BME280;37130;55.670;37.596;2022-09-09T00:18:13;100232.63;;;7.62;63.34
51081;BME280;37130;55.670;37.596;2022-09-09T00:26:09;100236.22;;;7.59;63.22
51081;BME280;37130;55.670;37.596;2022-09-09T00:28:48;100240.06;;;7.46;63.93
51081;BME280;37130;55.670;37.596;2022-09-09T00:31:23;100229.69;;;7.40;63.37
51081;BME280;37130;55.670;37.596;2022-09-09T00:33:52;100235.81;;;7.40;63.74
51081;BME280;37130;55.670;37.596;2022-09-09T00:36:21;100236.72;;;7.39;64.10
51081;BME280;37130;55.670;37.596;2022-09-09T00:38:56;100241.06;;;7.42;63.26
51081;BME280;37130;55.670;37.596;2022-09-09T00:49:01;100247.13;;;7.44;63.71
51081;BME280;37130;55.670;37.596;2022-09-09T00:57:07;100250.69;;;7.43;63.29
51081;BME280;37130;55.670;37.596;2022-09-09T01:02:11;100261.06;;;7.49;63.28
51081;BME280;37130;55.670;37.596;2022-09-09T01:04:41;100260.19;;;7.50;63.55
51081;BME280;37130;55.670;37.596;2022-09-09T01:07:18;100255.78;;;7.49;63.30
51081;BME280;37130;55.670;37.596;2022-09-09T01:09:55;100262.81;;;7.50;63.36
51081;BME280;37130;55.670;37.596;2022-09-09T01:14:58;100260.13;;;7.52;63.38
51081;BME280;37130;55.670;37.596;2022-09-09T01:17:39;100262.72;;;7.53;63.59
51081;BME280;37130;55.670;37.596;2022-09-09T01:20:12;100259.25;;;7.53;63.40
51081;BME280;37130;55.670;37.596;2022-09-09T01:23:48;100268.00;;;7.53;63.42
51081;BME280;37130;55.670;37.596;2022-09-09T01:28:35;100272.41;;;7.53;63.39
51081;BME280;37130;55.670;37.596;2022-09-09T01:31:09;100282.97;;;7.53;63.54
51081;BME280;37130;55.670;37.596;2022-09-09T01:33:42;100277.63;;;7.54;63.88
51081;BME280;37130;55.670;37.596;2022-09-09T01:36:12;100285.53;;;7.56;63.65
51081;BME280;37130;55.670;37.596;2022-09-09T01:38:49;100281.09;;;7.56;63.77
51081;BME280;37130;55.670;37.596;2022-09-09T01:41:17;100282.03;;;7.54;63.74
51081;BME280;37130;55.670;37.596;2022-09-09T01:43:56;100282.88;;;7.56;64.02
51081;BME280;37130;55.670;37.596;2022-09-09T01:46:24;100281.09;;;7.58;63.60
51081;BME280;37130;55.670;37.596;2022-09-09T01:48:52;100302.19;;;7.56;63.71
51081;BME280;37130;55.670;37.596;2022-09-09T01:51:21;100289.84;;;7.58;63.84
51081;BME280;37130;55.670;37.596;2022-09-09T01:53:48;100294.22;;;7.59;64.06
51081;BME280;37130;55.670;37.596;2022-09-09T01:56:39;100292.47;;;7.58;63.87
51081;BME280;37130;55.670;37.596;2022-09-09T01:59:16;100295.16;;;7.57;64.02
51081;BME280;37130;55.670;37.596;2022-09-09T02:01:57;100296.91;;;7.56;63.97
51081;BME280;37130;55.670;37.596;2022-09-09T02:06:53;100304.13;;;7.50;63.90
51081;BME280;37130;55.670;37.596;2022-09-09T02:09:26;100307.66;;;7.49;64.27
51081;BME280;37130;55.670;37.596;2022-09-09T02:12:02;100305.00;;;7.49;64.24
51081;BME280;37130;55.670;37.596;2022-09-09T02:14:42;100308.56;;;7.47;64.32
51081;BME280;37130;55.670;37.596;2022-09-09T02:17:13;100301.50;;;7.48;63.95
51081;BME280;37130;55.670;37.596;2022-09-09T02:20:06;100307.66;;;7.49;63.95
51081;BME280;37130;55.670;37.596;2022-09-09T02:22:55;100305.88;;;7.49;64.39
51081;BME280;37130;55.670;37.596;2022-09-09T02:25:25;100312.06;;;7.48;63.90
51081;BME280;37130;55.670;37.596;2022-09-09T02:27:58;100313.78;;;7.49;64.15
51081;BME280;37130;55.670;37.596;2022-09-09T02:30:27;100313.78;;;7.49;64.04
51081;BME280;37130;55.670;37.596;2022-09-09T02:32:58;100314.63;;;7.51;64.06
51081;BME280;37130;55.670;37.596;2022-09-09T02:35:40;100327.00;;;7.47;64.11
51081;BME280;37130;55.670;37.596;2022-09-09T02:38:10;100320.13;;;7.42;64.11
51081;BME280;37130;55.670;37.596;2022-09-09T02:40:44;100321.06;;;7.38;64.47
51081;BME280;37130;55.670;37.596;2022-09-09T02:43:13;100327.34;;;7.32;64.30
51081;BME280;37130;55.670;37.596;2022-09-09T02:45:56;100328.38;;;7.27;64.09
51081;BME280;37130;55.670;37.596;2022-09-09T02:48:34;100337.22;;;7.22;64.78
51081;BME280;37130;55.670;37.596;2022-09-09T02:53:50;100334.81;;;7.12;64.58
51081;BME280;37130;55.670;37.596;2022-09-09T02:56:23;100343.72;;;7.08;64.65
51081;BME280;37130;55.670;37.596;2022-09-09T02:58:56;100348.09;;;7.07;64.48
51081;BME280;37130;55.670;37.596;2022-09-09T03:01:24;100346.38;;;7.05;64.90
51081;BME280;37130;55.670;37.596;2022-09-09T03:03:52;100348.22;;;7.01;64.37
51081;BME280;37130;55.670;37.596;2022-09-09T03:06:19;100350.09;;;6.96;64.60
51081;BME280;37130;55.670;37.596;2022-09-09T03:08:54;100349.31;;;6.91;65.07
51081;BME280;37130;55.670;37.596;2022-09-09T03:11:25;100348.53;;;6.87;65.01
51081;BME280;37130;55.670;37.596;2022-09-09T03:13:52;100350.41;;;6.80;64.67
51081;BME280;37130;55.670;37.596;2022-09-09T03:16:20;100347.06;;;6.72;64.47
51081;BME280;37130;55.670;37.596;2022-09-09T03:18:51;100353.31;;;6.67;64.71
51081;BME280;37130;55.670;37.596;2022-09-09T03:21:19;100356.09;;;6.57;64.72
51081;BME280;37130;55.670;37.596;2022-09-09T03:23:48;100358.84;;;6.53;64.45
51081;BME280;37130;55.670;37.596;2022-09-09T03:26:15;100360.66;;;6.49;65.13
51081;BME280;37130;55.670;37.596;2022-09-09T03:28:45;100358.06;;;6.46;64.70
51081;BME280;37130;55.670;37.596;2022-09-09T03:31:16;100357.06;;;6.53;64.99
51081;BME280;37130;55.670;37.596;2022-09-09T03:33:44;100361.38;;;6.57;64.82
51081;BME280;37130;55.670;37.596;2022-09-09T03:36:14;100371.09;;;6.54;64.81
51081;BME280;37130;55.670;37.596;2022-09-09T03:38:42;100373.78;;;6.52;64.48
51081;BME280;37130;55.670;37.596;2022-09-09T03:41:11;100381.59;;;6.55;65.24
51081;BME280;37130;55.670;37.596;2022-09-09T03:43:39;100378.88;;;6.60;65.09
51081;BME280;37130;55.670;37.596;2022-09-09T03:46:07;100377.84;;;6.67;64.48
51081;BME280;37130;55.670;37.596;2022-09-09T03:48:34;100375.00;;;6.79;64.39
51081;BME280;37130;55.670;37.596;2022-09-09T03:51:02;100385.25;;;6.93;65.09
51081;BME280;37130;55.670;37.596;2022-09-09T03:53:31;100385.94;;;7.03;64.71
51081;BME280;37130;55.670;37.596;2022-09-09T03:56:01;100386.66;;;7.11;64.47
51081;BME280;37130;55.670;37.596;2022-09-09T03:58:29;100388.25;;;7.18;64.58
51081;BME280;37130;55.670;37.596;2022-09-09T04:01:07;100391.53;;;7.30;65.09
51081;BME280;37130;55.670;37.596;2022-09-09T04:03:42;100390.34;;;7.43;64.54
51081;BME280;37130;55.670;37.596;2022-09-09T04:06:09;100388.56;;;7.82;64.35
51081;BME280;37130;55.670;37.596;2022-09-09T04:08:38;100391.91;;;8.26;63.72
51081;BME280;37130;55.670;37.596;2022-09-09T04:11:06;100394.00;;;8.49;63.93
51081;BME280;37130;55.670;37.596;2022-09-09T04:13:35;100396.91;;;8.71;64.07
51081;BME280;37130;55.670;37.596;2022-09-09T04:16:06;100390.66;;;9.07;63.31
51081;BME280;37130;55.670;37.596;2022-09-09T04:18:35;100388.38;;;9.54;63.16
51081;BME280;37130;55.670;37.596;2022-09-09T04:21:02;100390.38;;;10.02;62.59
51081;BME280;37130;55.670;37.596;2022-09-09T04:23:32;100396.91;;;10.45;62.31
51081;BME280;37130;55.670;37.596;2022-09-09T04:26:01;100399.38;;;11.25;61.62
51081;BME280;37130;55.670;37.596;2022-09-09T04:28:32;100395.38;;;13.28;59.75
51081;BME280;37130;55.670;37.596;2022-09-09T04:31:33;100384.81;;;15.86;57.34
51081;BME280;37130;55.670;37.596;2022-09-09T04:33:55;100397.56;;;18.42;54.78
51081;BME280;37130;55.670;37.596;2022-09-09T04:36:24;100397.78;;;20.04;53.92
51081;BME280;37130;55.670;37.596;2022-09-09T04:38:57;100428.31;;;21.66;53.11
51081;BME280;37130;55.670;37.596;2022-09-09T04:45:31;100420.44;;;24.65;51.65
51081;BME280;37130;55.670;37.596;2022-09-09T04:47:59;100424.94;;;25.23;51.74
51081;BME280;37130;55.670;37.596;2022-09-09T04:50:27;100427.63;;;25.04;53.10
51081;BME280;37130;55.670;37.596;2022-09-09T04:53:01;100424.59;;;23.80;55.18
51081;BME280;37130;55.670;37.596;2022-09-09T04:55:29;100426.53;;;22.10;56.81
51081;BME280;37130;55.670;37.596;2022-09-09T04:57:56;100430.22;;;20.86;58.31
51081;BME280;37130;55.670;37.596;2022-09-09T05:00:26;100424.75;;;20.15;58.08
51081;BME280;37130;55.670;37.596;2022-09-09T05:02:54;100421.69;;;19.96;57.36
51081;BME280;37130;55.670;37.596;2022-09-09T05:05:21;100425.13;;;19.48;57.04
51081;BME280;37130;55.670;37.596;2022-09-09T05:07:49;100432.78;;;19.03;57.19
51081;BME280;37130;55.670;37.596;2022-09-09T05:10:16;100433.91;;;18.86;56.98
51081;BME280;37130;55.670;37.596;2022-09-09T05:12:52;100432.25;;;19.11;56.45
51081;BME280;37130;55.670;37.596;2022-09-09T05:15:23;100435.38;;;19.92;55.15
51081;BME280;37130;55.670;37.596;2022-09-09T05:17:51;100435.59;;;19.89;54.50
51081;BME280;37130;55.670;37.596;2022-09-09T05:20:21;100439.31;;;19.37;54.51
51081;BME280;37130;55.670;37.596;2022-09-09T05:22:52;100444.94;;;18.69;54.69
51081;BME280;37130;55.670;37.596;2022-09-09T05:25:19;100441.75;;;18.49;54.94
51081;BME280;37130;55.670;37.596;2022-09-09T05:27:46;100444.06;;;19.08;53.77
51081;BME280;37130;55.670;37.596;2022-09-09T05:30:14;100437.34;;;19.65;52.03
51081;BME280;37130;55.670;37.596;2022-09-09T05:32:41;100448.97;;;21.10;49.74
51081;BME280;37130;55.670;37.596;2022-09-09T05:35:10;100447.09;;;22.99;47.82
51081;BME280;37130;55.670;37.596;2022-09-09T05:37:38;100457.84;;;24.12;46.16
51081;BME280;37130;55.670;37.596;2022-09-09T05:40:07;100455.50;;;24.86;46.11
51081;BME280;37130;55.670;37.596;2022-09-09T05:42:36;100453.41;;;26.30;43.73
51081;BME280;37130;55.670;37.596;2022-09-09T05:45:03;100452.69;;;27.17;43.55
51081;BME280;37130;55.670;37.596;2022-09-09T05:47:31;100454.69;;;28.10;43.21
51081;BME280;37130;55.670;37.596;2022-09-09T05:49:58;100466.06;;;29.13;42.28
51081;BME280;37130;55.670;37.596;2022-09-09T05:52:26;100465.31;;;29.52;39.97
51081;BME280;37130;55.670;37.596;2022-09-09T05:54:55;100458.69;;;30.33;39.71
51081;BME280;37130;55.670;37.596;2022-09-09T05:57:23;100467.09;;;31.01;39.87
51081;BME280;37130;55.670;37.596;2022-09-09T05:59:51;100468.88;;;31.61;37.87
51081;BME280;37130;55.670;37.596;2022-09-09T06:02:18;100472.56;;;32.13;37.62
51081;BME280;37130;55.670;37.596;2022-09-09T06:04:45;100481.47;;;31.71;37.56
51081;BME280;37130;55.670;37.596;2022-09-09T06:07:13;100472.22;;;31.19;37.20
51081;BME280;37130;55.670;37.596;2022-09-09T06:09:41;100475.50;;;31.14;37.27
51081;BME280;37130;55.670;37.596;2022-09-09T06:12:08;100475.84;;;30.96;37.93
51081;BME280;37130;55.670;37.596;2022-09-09T06:14:36;100474.44;;;31.83;37.22
51081;BME280;37130;55.670;37.596;2022-09-09T06:17:03;100482.75;;;32.77;35.91
51081;BME280;37130;55.670;37.596;2022-09-09T06:19:32;100488.19;;;33.42;36.01
51081;BME280;37130;55.670;37.596;2022-09-09T06:22:00;100495.03;;;33.87;34.95
51081;BME280;37130;55.670;37.596;2022-09-09T06:24:29;100494.97;;;33.46;34.72
51081;BME280;37130;55.670;37.596;2022-09-09T06:26:59;100488.38;;;32.90;34.40
51081;BME280;37130;55.670;37.596;2022-09-09T06:29:31;100487.75;;;32.30;35.03
51081;BME280;37130;55.670;37.596;2022-09-09T06:31:59;100488.53;;;31.50;36.38
51081;BME280;37130;55.670;37.596;2022-09-09T06:34:27;100496.84;;;31.86;36.53
51081;BME280;37130;55.670;37.596;2022-09-09T06:36:59;100494.13;;;32.95;35.35
51081;BME280;37130;55.670;37.596;2022-09-09T06:39:34;100497.09;;;32.72;34.65
51081;BME280;37130;55.670;37.596;2022-09-09T06:42:01;100495.38;;;33.71;34.38
51081;BME280;37130;55.670;37.596;2022-09-09T06:44:55;100503.84;;;34.79;33.25
51081;BME280;37130;55.670;37.596;2022-09-09T06:47:31;100510.03;;;33.85;34.20
51081;BME280;37130;55.670;37.596;2022-09-09T06:50:01;100495.16;;;32.94;34.86
51081;BME280;37130;55.670;37.596;2022-09-09T06:52:31;100506.75;;;31.43;35.55
51081;BME280;37130;55.670;37.596;2022-09-09T06:54:59;100501.13;;;30.52;36.01
51081;BME280;37130;55.670;37.596;2022-09-09T06:57:28;100508.72;;;30.65;36.35
51081;BME280;37130;55.670;37.596;2022-09-09T07:00:21;100505.41;;;30.55;35.83
51081;BME280;37130;55.670;37.596;2022-09-09T07:02:50;100503.63;;;29.11;35.30
51081;BME280;37130;55.670;37.596;2022-09-09T07:05:18;100513.69;;;26.97;36.49
51081;BME280;37130;55.670;37.596;2022-09-09T07:07:46;100509.75;;;25.53;36.79
51081;BME280;37130;55.670;37.596;2022-09-09T07:10:15;100499.56;;;26.57;36.94
51081;BME280;37130;55.670;37.596;2022-09-09T07:12:43;100501.69;;;29.36;34.27
51081;BME280;37130;55.670;37.596;2022-09-09T07:15:12;100517.53;;;32.04;32.40
51081;BME280;37130;55.670;37.596;2022-09-09T07:17:43;100521.53;;;34.01;30.89
51081;BME280;37130;55.670;37.596;2022-09-09T07:20:10;100521.03;;;34.87;30.51
51081;BME280;37130;55.670;37.596;2022-09-09T07:22:39;100533.16;;;34.38;29.83
51081;BME280;37130;55.670;37.596;2022-09-09T07:25:08;100531.44;;;35.19;28.90
51081;BME280;37130;55.670;37.596;2022-09-09T07:27:36;100536.34;;;33.66;30.41
51081;BME280;37130;55.670;37.596;2022-09-09T07:30:04;100529.97;;;30.86;30.88
51081;BME280;37130;55.670;37.596;2022-09-09T07:32:32;100530.97;;;28.60;31.93
51081;BME280;37130;55.670;37.596;2022-09-09T07:35:00;100534.25;;;26.63;32.70
51081;BME280;37130;55.670;37.596;2022-09-09T07:37:28;100538.22;;;24.90;33.82
51081;BME280;37130;55.670;37.596;2022-09-09T07:39:56;100535.78;;;23.77;34.15
51081;BME280;37130;55.670;37.596;2022-09-09T07:42:24;100531.63;;;23.73;33.78
51081;BME280;37130;55.670;37.596;2022-09-09T07:44:52;100531.34;;;25.54;32.75
51081;BME280;37130;55.670;37.596;2022-09-09T07:47:23;100536.09;;;24.84;33.03
51081;BME280;37130;55.670;37.596;2022-09-09T07:49:52;100542.41;;;23.22;33.68
51081;BME280;37130;55.670;37.596;2022-09-09T07:52:24;100543.44;;;21.31;34.57
51081;BME280;37130;55.670;37.596;2022-09-09T07:54:55;100538.31;;;19.95;35.64
51081;BME280;37130;55.670;37.596;2022-09-09T07:57:24;100546.50;;;19.15;36.25
51081;BME280;37130;55.670;37.596;2022-09-09T07:59:52;100539.16;;;20.69;35.69
51081;BME280;37130;55.670;37.596;2022-09-09T08:02:20;100546.72;;;23.34;33.95
51081;BME280;37130;55.670;37.596;2022-09-09T08:04:47;100541.41;;;26.64;31.50
51081;BME280;37130;55.670;37.596;2022-09-09T08:07:17;100554.25;;;25.70;30.88
51081;BME280;37130;55.670;37.596;2022-09-09T08:09:49;100558.81;;;23.51;32.77
51081;BME280;37130;55.670;37.596;2022-09-09T08:12:24;100550.16;;;22.17;33.69
51081;BME280;37130;55.670;37.596;2022-09-09T08:14:52;100546.13;;;21.31;34.04
51081;BME280;37130;55.670;37.596;2022-09-09T08:17:24;100548.16;;;20.81;34.28
51081;BME280;37130;55.670;37.596;2022-09-09T08:19:51;100549.06;;;20.68;34.74
51081;BME280;37130;55.670;37.596;2022-09-09T08:22:23;100548.03;;;20.58;34.37
51081;BME280;37130;55.670;37.596;2022-09-09T08:24:51;100542.56;;;20.47;34.41
51081;BME280;37130;55.670;37.596;2022-09-09T08:27:19;100551.16;;;20.15;34.63
51081;BME280;37130;55.670;37.596;2022-09-09T08:29:47;100555.28;;;19.69;34.51
51081;BME280;37130;55.670;37.596;2022-09-09T08:32:14;100557.06;;;19.31;34.60
51081;BME280;37130;55.670;37.596;2022-09-09T08:34:44;100548.41;;;19.65;34.53
51081;BME280;37130;55.670;37.596;2022-09-09T08:37:18;100553.94;;;20.26;34.02
51081;BME280;37130;55.670;37.596;2022-09-09T08:39:47;100545.88;;;21.22;33.62
51081;BME280;37130;55.670;37.596;2022-09-09T08:47:35;100557.44;;;20.40;34.43
51081;BME280;37130;55.670;37.596;2022-09-09T08:52:43;100554.63;;;18.88;35.44
51081;BME280;37130;55.670;37.596;2022-09-09T08:55:25;100556.75;;;18.41;36.52
51081;BME280;37130;55.670;37.596;2022-09-09T08:57:56;100557.06;;;18.78;37.06
51081;BME280;37130;55.670;37.596;2022-09-09T09:00:27;100551.47;;;18.81;36.95
51081;BME280;37130;55.670;37.596;2022-09-09T09:05:35;100557.22;;;18.89;37.70
51081;BME280;37130;55.670;37.596;2022-09-09T09:08:12;100551.84;;;19.02;37.05
51081;BME280;37130;55.670;37.596;2022-09-09T09:10:48;100568.09;;;18.32;36.72
51081;BME280;37130;55.670;37.596;2022-09-09T09:13:21;100564.34;;;17.48;36.43
51081;BME280;37130;55.670;37.596;2022-09-09T09:15:54;100562.81;;;16.84;36.52
51081;BME280;37130;55.670;37.596;2022-09-09T09:18:23;100566.88;;;16.28;37.03
51081;BME280;37130;55.670;37.596;2022-09-09T09:23:45;100562.38;;;16.60;36.84
51081;BME280;37130;55.670;37.596;2022-09-09T09:26:15;100558.22;;;16.86;36.61
51081;BME280;37130;55.670;37.596;2022-09-09T09:28:43;100555.31;;;16.91;36.77
51081;BME280;37130;55.670;37.596;2022-09-09T09:31:14;100563.50;;;16.88;36.55
51081;BME280;37130;55.670;37.596;2022-09-09T09:33:49;100557.38;;;16.70;36.55
51081;BME280;37130;55.670;37.596;2022-09-09T09:36:22;100560.75;;;16.57;36.70
51081;BME280;37130;55.670;37.596;2022-09-09T09:38:52;100560.31;;;16.33;37.15
51081;BME280;37130;55.670;37.596;2022-09-09T09:41:43;100559.63;;;16.14;37.08
51081;BME280;37130;55.670;37.596;2022-09-09T09:44:22;100555.41;;;16.10;37.20
51081;BME280;37130;55.670;37.596;2022-09-09T09:46:50;100559.47;;;16.17;37.24
51081;BME280;37130;55.670;37.596;2022-09-09T09:49:18;100561.59;;;16.10;37.33
51081;BME280;37130;55.670;37.596;2022-09-09T09:51:45;100556.47;;;15.90;37.69
51081;BME280;37130;55.670;37.596;2022-09-09T09:54:33;100550.47;;;16.02;37.61
51081;BME280;37130;55.670;37.596;2022-09-09T09:57:10;100553.53;;;16.28;37.49
51081;BME280;37130;55.670;37.596;2022-09-09T09:59:40;100551.09;;;16.55;37.28
51081;BME280;37130;55.670;37.596;2022-09-09T10:02:22;100549.94;;;16.75;37.21
51081;BME280;37130;55.670;37.596;2022-09-09T10:05:04;100550.13;;;16.88;37.16
51081;BME280;37130;55.670;37.596;2022-09-09T10:07:33;100551.94;;;16.55;37.04
51081;BME280;37130;55.670;37.596;2022-09-09T10:10:01;100556.25;;;16.26;37.44
51081;BME280;37130;55.670;37.596;2022-09-09T10:15:59;100562.88;;;16.19;37.48
51081;BME280;37130;55.670;37.596;2022-09-09T10:20:52;100561.75;;;15.23;38.08
51081;BME280;37130;55.670;37.596;2022-09-09T10:28:20;100558.25;;;14.69;38.94
51081;BME280;37130;55.670;37.596;2022-09-09T10:33:56;100559.00;;;15.07;38.52
51081;BME280;37130;55.670;37.596;2022-09-09T10:36:27;100556.03;;;15.31;38.54
51081;BME280;37130;55.670;37.596;2022-09-09T10:39:13;100563.25;;;15.46;38.56
51081;BME280;37130;55.670;37.596;2022-09-09T10:42:00;100558.03;;;15.78;38.46
51081;BME280;37130;55.670;37.596;2022-09-09T10:47:20;100567.81;;;16.42;38.25
51081;BME280;37130;55.670;37.596;2022-09-09T10:55:23;100551.94;;;16.55;38.29
51081;BME280;37130;55.670;37.596;2022-09-09T10:57:56;100558.25;;;16.23;38.15
51081;BME280;37130;55.670;37.596;2022-09-09T11:00:42;100563.75;;;15.53;38.69
51081;BME280;37130;55.670;37.596;2022-09-09T11:03:18;100567.25;;;15.20;39.14
51081;BME280;37130;55.670;37.596;2022-09-09T11:05:51;100568.03;;;15.05;39.04
51081;BME280;37130;55.670;37.596;2022-09-09T11:08:21;100572.16;;;14.93;39.05
51081;BME280;37130;55.670;37.596;2022-09-09T11:13:30;100560.63;;;14.93;39.12
51081;BME280;37130;55.670;37.596;2022-09-09T11:16:14;100557.28;;;15.06;39.21
51081;BME280;37130;55.670;37.596;2022-09-09T11:18:43;100562.78;;;15.21;39.04
51081;BME280;37130;55.670;37.596;2022-09-09T11:21:28;100558.91;;;15.44;38.96
51081;BME280;37130;55.670;37.596;2022-09-09T11:24:02;100564.16;;;15.63;38.86
51081;BME280;37130;55.670;37.596;2022-09-09T11:26:33;100572.72;;;15.34;38.65
51081;BME280;37130;55.670;37.596;2022-09-09T11:29:19;100568.47;;;14.96;39.09
51081;BME280;37130;55.670;37.596;2022-09-09T11:31:54;100571.94;;;14.98;39.38
51081;BME280;37130;55.670;37.596;2022-09-09T11:34:39;100568.50;;;15.13;39.37
51081;BME280;37130;55.670;37.596;2022-09-09T11:37:23;100565.44;;;15.21;39.15
51081;BME280;37130;55.670;37.596;2022-09-09T11:42:28;100563.56;;;15.05;39.69
51081;BME280;37130;55.670;37.596;2022-09-09T11:44:56;100569.28;;;14.98;39.62
51081;BME280;37130;55.670;37.596;2022-09-09T11:47:26;100560.41;;;14.97;39.60
51081;BME280;37130;55.670;37.596;2022-09-09T11:52:43;100559.06;;;15.06;40.07
51081;BME280;37130;55.670;37.596;2022-09-09T11:55:28;100563.84;;;15.17;39.67
51081;BME280;37130;55.670;37.596;2022-09-09T12:00:42;100557.56;;;15.35;39.46
51081;BME280;37130;55.670;37.596;2022-09-09T12:05:57;100553.41;;;15.47;39.36
51081;BME280;37130;55.670;37.596;2022-09-09T12:08:26;100557.03;;;15.46;39.11
51081;BME280;37130;55.670;37.596;2022-09-09T12:10:56;100556.31;;;15.42;39.38
51081;BME280;37130;55.670;37.596;2022-09-09T12:13:24;100555.72;;;15.20;39.54
51081;BME280;37130;55.670;37.596;2022-09-09T12:15:53;100555.16;;;14.78;39.92
51081;BME280;37130;55.670;37.596;2022-09-09T12:18:22;100559.78;;;14.37;39.85
51081;BME280;37130;55.670;37.596;2022-09-09T12:26:01;100562.91;;;13.69;40.32
51081;BME280;37130;55.670;37.596;2022-09-09T12:33:49;100558.09;;;13.38;40.83
51081;BME280;37130;55.670;37.596;2022-09-09T12:36:21;100558.50;;;13.49;40.98
51081;BME280;37130;55.670;37.596;2022-09-09T12:38:51;100553.34;;;13.65;40.94
51081;BME280;37130;55.670;37.596;2022-09-09T12:41:22;100558.63;;;13.86;40.85
51081;BME280;37130;55.670;37.596;2022-09-09T12:43:50;100547.13;;;14.04;40.46
51081;BME280;37130;55.670;37.596;2022-09-09T12:48:55;100549.44;;;14.31;40.59
51081;BME280;37130;55.670;37.596;2022-09-09T12:53:52;100551.47;;;14.25;40.41
51081;BME280;37130;55.670;37.596;2022-09-09T12:56:21;100546.88;;;14.28;40.75
51081;BME280;37130;55.670;37.596;2022-09-09T12:58:50;100547.78;;;14.28;40.53
51081;BME280;37130;55.670;37.596;2022-09-09T13:01:27;100549.31;;;14.15;40.31
51081;BME280;37130;55.670;37.596;2022-09-09T13:03:56;100557.78;;;14.04;40.65
51081;BME280;37130;55.670;37.596;2022-09-09T13:06:24;100551.28;;;13.72;40.59
51081;BME280;37130;55.670;37.596;2022-09-09T13:08:58;100557.63;;;13.49;40.71
51081;BME280;37130;55.670;37.596;2022-09-09T13:11:28;100551.91;;;13.37;40.99
51081;BME280;37130;55.670;37.596;2022-09-09T13:13:57;100552.53;;;13.44;40.91
51081;BME280;37130;55.670;37.596;2022-09-09T13:16:26;100550.25;;;13.55;40.92
51081;BME280;37130;55.670;37.596;2022-09-09T13:19:02;100551.34;;;13.70;40.68
51081;BME280;37130;55.670;37.596;2022-09-09T13:21:34;100560.25;;;13.69;40.57
51081;BME280;37130;55.670;37.596;2022-09-09T13:24:02;100554.53;;;13.78;40.82
51081;BME280;37130;55.670;37.596;2022-09-09T13:26:30;100554.84;;;13.91;40.85
51081;BME280;37130;55.670;37.596;2022-09-09T13:29:17;100556.34;;;13.97;40.82
51081;BME280;37130;55.670;37.596;2022-09-09T13:31:44;100562.69;;;13.94;40.78
51081;BME280;37130;55.670;37.596;2022-09-09T13:34:13;100560.44;;;13.85;41.04
51081;BME280;37130;55.670;37.596;2022-09-09T13:36:40;100561.78;;;13.75;40.66
51081;BME280;37130;55.670;37.596;2022-09-09T13:39:13;100553.22;;;13.68;40.69
51081;BME280;37130;55.670;37.596;2022-09-09T13:41:44;100554.22;;;13.66;41.11
51081;BME280;37130;55.670;37.596;2022-09-09T13:44:17;100556.94;;;13.64;41.12
51081;BME280;37130;55.670;37.596;2022-09-09T13:46:47;100561.41;;;13.64;41.37
51081;BME280;37130;55.670;37.596;2022-09-09T13:51:43;100554.78;;;13.72;41.31
51081;BME280;37130;55.670;37.596;2022-09-09T13:54:13;100557.91;;;13.82;41.48
51081;BME280;37130;55.670;37.596;2022-09-09T13:56:41;100551.16;;;13.94;41.17
51081;BME280;37130;55.670;37.596;2022-09-09T13:59:11;100548.72;;;14.08;41.46
51081;BME280;37130;55.670;37.596;2022-09-09T14:01:38;100535.75;;;14.19;40.96
51081;BME280;37130;55.670;37.596;2022-09-09T14:04:06;100539.06;;;14.24;41.37
51081;BME280;37130;55.670;37.596;2022-09-09T14:06:37;100542.31;;;14.31;41.34
51081;BME280;37130;55.670;37.596;2022-09-09T14:09:06;100540.19;;;14.38;40.91
51081;BME280;37130;55.670;37.596;2022-09-09T14:11:34;100542.94;;;14.36;41.24
51081;BME280;37130;55.670;37.596;2022-09-09T14:14:01;100544.09;;;14.31;40.85
51081;BME280;37130;55.670;37.596;2022-09-09T14:16:28;100550.97;;;14.17;41.24
51081;BME280;37130;55.670;37.596;2022-09-09T14:18:56;100545.97;;;13.91;41.30
51081;BME280;37130;55.670;37.596;2022-09-09T14:21:24;100543.75;;;13.81;41.40
51081;BME280;37130;55.670;37.596;2022-09-09T14:23:51;100544.09;;;13.74;41.62
51081;BME280;37130;55.670;37.596;2022-09-09T14:26:20;100543.47;;;13.67;41.58
51081;BME280;37130;55.670;37.596;2022-09-09T14:28:48;100547.75;;;13.71;42.08
51081;BME280;37130;55.670;37.596;2022-09-09T14:31:22;100547.59;;;13.74;41.77
51081;BME280;37130;55.670;37.596;2022-09-09T14:33:49;100549.34;;;13.75;41.65
51081;BME280;37130;55.670;37.596;2022-09-09T14:36:17;100541.38;;;13.75;42.12
51081;BME280;37130;55.670;37.596;2022-09-09T14:38:45;100544.03;;;13.75;41.96
51081;BME280;37130;55.670;37.596;2022-09-09T14:41:15;100543.94;;;13.77;42.22
51081;BME280;37130;55.670;37.596;2022-09-09T14:43:45;100540.28;;;13.79;42.29
51081;BME280;37130;55.670;37.596;2022-09-09T14:46:13;100545.75;;;13.76;42.28
51081;BME280;37130;55.670;37.596;2022-09-09T14:48:41;100544.09;;;13.74;42.26
51081;BME280;37130;55.670;37.596;2022-09-09T14:51:10;100541.81;;;13.65;42.32